Terminal Aerodrome Forecast
Issued by NWS

Home | Current Version | Previous Version | Text Only | Print | Product List | Glossary Off
Versions: 1 2 3 4 5 6 7 8 9 10 11 12

000
FTUS43 KMPX 212324
TAFRNH
TAF
KRNH 212324Z 2200/2224 16010KT P6SM FEW050 FEW120
     FM220200 15007KT P6SM SCT050 BKN120
     FM220800 27005KT P6SM SCT120
     FM221100 34005KT P6SM -SHRA BKN050
      TEMPO 2213/2216 5SM -TSRA BKN025CB OVC050
     FM221900 VRB05KT P6SM BKN025 OVC050=

USA.gov is the U.S. government's official web portal to all federal, state and local government web resources and services.